Time;durP1;ratioP1;P1;durP2;ratioP2;P2;SDS_P1;SDS_P2;PMS_P1;PMS_P2;Temp;Humidity;BMP_temperature;BMP_pressure;BME280_temperature;BME280_humidity;BME280_pressure;Samples;Min_cycle;Max_cycle;Signal;HPM_P1;HPM_P2
2022/12/17 13:05:59;;;;;;;53.88;19.15;;;1.60;99.90;;;;;;4244495;28;20063;-86
2022/12/17 13:08:17;;;;;;;46.35;17.55;;;1.70;99.90;;;;;;4243499;28;20047;-86
2022/12/17 13:10:30;;;;;;;52.10;19.43;;;1.80;99.90;;;;;;4226416;28;20054;-86
2022/12/17 13:12:44;;;;;;;50.50;18.40;;;1.70;99.90;;;;;;4222912;28;20319;-86
2022/12/17 13:15:04;;;;;;;54.58;20.77;;;1.50;99.90;;;;;;4224731;28;20047;-86
2022/12/17 13:17:34;;;;;;;46.90;19.05;;;1.50;99.90;;;;;;4223776;28;20415;-86
2022/12/17 13:19:39;;;;;;;57.75;21.05;;;2.20;99.90;;;;;;4218124;28;20060;-86
2022/12/17 13:21:40;;;;;;;58.00;20.73;;;1.70;99.90;;;;;;4205025;28;20053;-86
2022/12/17 13:23:50;;;;;;;48.67;18.83;;;1.80;99.90;;;;;;4223990;28;20088;-86
2022/12/17 13:26:20;;;;;;;40.05;15.90;;;2.00;99.90;;;;;;4226960;28;20043;-86
2022/12/17 13:28:29;;;;;;;48.05;19.13;;;1.90;99.90;;;;;;4228253;28;20048;-86
2022/12/17 13:30:36;;;;;;;43.83;17.30;;;1.80;99.90;;;;;;4227613;28;20380;-86
2022/12/17 13:32:46;;;;;;;58.35;20.35;;;1.60;99.90;;;;;;4225864;28;20489;-85
2022/12/17 13:35:23;;;;;;;50.75;20.02;;;2.50;99.90;;;;;;4225235;28;20059;-86
2022/12/17 13:37:57;;;;;;;55.45;18.70;;;1.60;99.90;;;;;;4209568;28;20057;-86
2022/12/17 13:40:30;;;;;;;54.63;20.27;;;1.40;99.90;;;;;;4205184;28;20122;-85
2022/12/17 13:42:34;;;;;;;51.00;18.38;;;1.20;99.90;;;;;;4202305;28;20056;-86
2022/12/17 13:44:44;;;;;;;55.17;20.10;;;1.50;99.90;;;;;;4206680;28;20112;-86
2022/12/17 13:46:48;;;;;;;58.03;21.15;;;1.20;99.90;;;;;;4224450;28;20092;-86
2022/12/17 13:49:02;;;;;;;50.03;17.92;;;1.30;99.90;;;;;;4207082;28;20049;-87
2022/12/17 13:51:04;;;;;;;42.60;18.77;;;1.40;99.90;;;;;;4206574;28;20155;-87
2022/12/17 13:53:10;;;;;;;45.08;19.30;;;1.60;99.90;;;;;;4218925;28;20036;-87
2022/12/17 13:55:25;;;;;;;53.88;20.35;;;2.80;99.90;;;;;;4205155;28;20420;-87
2022/12/17 13:57:27;;;;;;;53.88;19.10;;;1.80;99.90;;;;;;4236234;28;20039;-87
2022/12/17 13:59:30;;;;;;;47.85;19.05;;;2.40;99.90;;;;;;4237654;28;20081;-87
2022/12/17 14:01:32;;;;;;;54.35;19.58;;;2.00;99.90;;;;;;4221721;28;20044;-87
2022/12/17 14:03:42;;;;;;;51.40;20.20;;;1.00;99.90;;;;;;4234611;28;20071;-86
2022/12/17 14:05:46;;;;;;;52.28;20.25;;;2.60;99.90;;;;;;4222710;28;20051;-88
2022/12/17 14:07:52;;;;;;;56.85;19.88;;;2.20;99.90;;;;;;4223377;28;20048;-88
2022/12/17 14:09:56;;;;;;;48.35;19.65;;;2.20;99.90;;;;;;4204859;28;20174;-88
2022/12/17 14:14:41;;;;;;;52.83;18.48;;;2.20;99.90;;;;;;4222697;28;20066;-88
2022/12/17 14:16:45;;;;;;;48.03;19.90;;;2.30;99.90;;;;;;4222150;28;20052;-87
2022/12/17 14:18:55;;;;;;;56.20;20.63;;;2.50;99.90;;;;;;4223635;28;20137;-87
2022/12/17 14:20:57;;;;;;;45.22;17.50;;;2.30;99.90;;;;;;4230298;28;20036;-88
2022/12/17 14:23:10;;;;;;;53.28;21.10;;;4.40;99.90;;;;;;4204747;28;20424;-88
2022/12/17 14:25:19;;;;;;;46.22;18.77;;;2.70;99.90;;;;;;4217215;28;20093;-88
2022/12/17 14:27:31;;;;;;;53.92;20.17;;;2.80;99.90;;;;;;4216986;28;20123;-87
2022/12/17 14:29:44;;;;;;;52.90;20.00;;;1.40;99.90;;;;;;4200386;28;20492;-88
2022/12/17 14:31:59;;;;;;;49.20;19.33;;;3.30;99.90;;;;;;4200515;28;20452;-88
2022/12/17 14:34:08;;;;;;;54.72;20.73;;;2.20;99.90;;;;;;4203390;28;20052;-88
2022/12/17 14:36:14;;;;;;;54.85;20.17;;;2.10;99.90;;;;;;4224611;28;20112;-88
2022/12/17 14:38:17;;;;;;;65.68;21.27;;;2.00;99.90;;;;;;4210367;28;20102;-87
2022/12/17 14:40:19;;;;;;;55.22;20.35;;;2.50;99.90;;;;;;4224928;28;20116;-87
2022/12/17 14:42:32;;;;;;;62.17;22.08;;;1.50;99.90;;;;;;4242644;28;20066;-87
2022/12/17 14:44:34;;;;;;;61.67;20.55;;;1.20;99.90;;;;;;4223257;28;20048;-87
2022/12/17 14:46:36;;;;;;;52.10;18.48;;;2.40;99.90;;;;;;4230572;28;20051;-88
2022/12/17 14:50:58;;;;;;;49.28;19.35;;;0.90;99.90;;;;;;4219726;28;20451;-88
2022/12/17 14:53:24;;;;;;;51.63;17.90;;;0.60;99.90;;;;;;4221811;28;20044;-87
2022/12/17 14:55:33;;;;;;;52.53;19.73;;;0.50;99.90;;;;;;4221754;28;20032;-88
2022/12/17 14:57:36;;;;;;;55.03;20.00;;;1.20;99.90;;;;;;4221584;28;20100;-88
2022/12/17 14:59:39;;;;;;;52.53;20.38;;;0.40;99.90;;;;;;4220564;28;20523;-88
2022/12/17 15:01:41;;;;;;;56.83;19.27;;;1.00;99.90;;;;;;4220422;28;20040;-88
2022/12/17 15:03:45;;;;;;;57.05;21.60;;;0.90;99.90;;;;;;4222267;28;20047;-87
2022/12/17 15:05:53;;;;;;;54.42;19.35;;;0.10;99.90;;;;;;4229882;28;20518;-89
2022/12/17 15:07:55;;;;;;;56.38;18.85;;;0.00;99.90;;;;;;4237898;28;20039;-89
2022/12/17 15:10:12;;;;;;;55.97;20.67;;;0.10;99.90;;;;;;4238821;28;20085;-89
2022/12/17 15:12:13;;;;;;;53.28;20.60;;;-0.10;99.90;;;;;;4205315;28;20500;-86
2022/12/17 15:14:17;;;;;;;52.97;19.58;;;-0.10;99.90;;;;;;4204233;28;20052;-88
2022/12/17 15:16:20;;;;;;;57.63;20.88;;;0.00;99.90;;;;;;4223476;28;20062;-88
2022/12/17 15:18:21;;;;;;;57.28;21.20;;;0.00;99.90;;;;;;4220741;28;20052;-88
2022/12/17 15:20:24;;;;;;;48.67;17.45;;;1.00;99.90;;;;;;4221755;28;20494;-87
2022/12/17 15:22:25;;;;;;;48.78;18.63;;;-0.30;99.90;;;;;;4218143;28;20044;-85
2022/12/17 15:24:33;;;;;;;63.53;21.20;;;-0.40;99.90;;;;;;4238097;28;20067;-86
2022/12/17 15:26:35;;;;;;;55.00;19.33;;;-0.40;99.90;;;;;;4239007;28;20044;-85
2022/12/17 15:28:37;;;;;;;49.47;19.15;;;0.70;99.90;;;;;;4220759;28;20048;-86
2022/12/17 15:30:46;;;;;;;54.92;21.17;;;-0.50;99.90;;;;;;4227300;28;20044;-87
2022/12/17 15:32:49;;;;;;;58.70;20.17;;;-0.50;99.90;;;;;;4204499;28;20124;-87
2022/12/17 15:34:58;;;;;;;57.85;21.05;;;0.10;99.90;;;;;;4205932;28;20049;-87
2022/12/17 15:36:59;;;;;;;61.63;22.08;;;-0.60;99.90;;;;;;4206529;28;20048;-86
2022/12/17 15:39:00;;;;;;;56.92;21.08;;;-0.50;99.90;;;;;;4224324;28;20428;-86
2022/12/17 15:43:29;;;;;;;58.78;21.15;;;-0.60;99.90;;;;;;4225111;28;20047;-87
2022/12/17 15:45:31;;;;;;;52.10;19.98;;;1.00;99.90;;;;;;4206301;28;20037;-87
2022/12/17 15:47:33;;;;;;;57.92;19.25;;;0.80;99.90;;;;;;4227369;28;20575;-87
2022/12/17 15:49:43;;;;;;;59.85;20.38;;;-0.60;99.90;;;;;;4224353;28;20040;-87
2022/12/17 15:51:45;;;;;;;57.00;20.63;;;-0.70;99.90;;;;;;4242373;28;20063;-87
2022/12/17 15:53:54;;;;;;;58.97;20.52;;;-0.70;99.90;;;;;;4224529;28;20093;-87
2022/12/17 15:56:02;;;;;;;63.05;18.63;;;-0.80;99.90;;;;;;4223589;28;20508;-87
2022/12/17 15:58:05;;;;;;;59.63;19.92;;;0.90;99.90;;;;;;4227930;28;20105;-87
2022/12/17 16:00:18;;;;;;;63.97;21.80;;;-0.80;99.90;;;;;;4243250;28;20052;-88
2022/12/17 16:02:20;;;;;;;55.67;18.73;;;-0.90;99.90;;;;;;4242969;28;20117;-87
2022/12/17 16:04:23;;;;;;;54.95;19.33;;;0.80;99.90;;;;;;4222806;28;20555;-87
2022/12/17 16:06:30;;;;;;;48.90;16.95;;;-1.00;99.90;;;;;;4238259;28;20039;-87
2022/12/17 16:08:32;;;;;;;61.13;17.98;;;0.50;99.90;;;;;;4238035;28;20067;-87
2022/12/17 16:10:33;;;;;;;59.50;18.92;;;-2.20;99.90;;;;;;4220586;28;20562;-86
2022/12/17 16:12:39;;;;;;;57.85;19.33;;;-1.00;99.90;;;;;;4237137;28;20052;-87
2022/12/17 16:14:40;;;;;;;57.97;20.20;;;-1.00;99.90;;;;;;4210603;28;20115;-87
2022/12/17 16:16:43;;;;;;;60.17;19.17;;;-1.10;99.90;;;;;;4221746;28;20110;-86
2022/12/17 16:18:45;;;;;;;64.45;19.73;;;0.40;99.90;;;;;;4225240;28;20055;-88
2022/12/17 16:20:47;;;;;;;60.80;19.17;;;-1.00;99.90;;;;;;4229251;28;20055;-88
2022/12/17 16:22:49;;;;;;;55.17;19.27;;;-1.00;99.90;;;;;;4221819;28;20052;-89
2022/12/17 16:24:51;;;;;;;62.60;18.90;;;0.40;99.90;;;;;;4223362;28;20040;-89
2022/12/17 16:26:55;;;;;;;59.10;19.00;;;-0.40;99.90;;;;;;4206268;28;20484;-88
2022/12/17 16:28:57;;;;;;;56.55;18.17;;;-1.20;99.90;;;;;;4204635;28;20115;-87
2022/12/17 16:31:04;;;;;;;54.22;18.60;;;-1.30;99.90;;;;;;4204745;28;20457;-87
2022/12/17 16:33:12;;;;;;;54.35;16.90;;;-1.30;99.90;;;;;;4221440;28;20047;-88
2022/12/17 16:35:13;;;;;;;60.00;17.10;;;-1.30;99.90;;;;;;4222877;28;20082;-88
2022/12/17 16:37:18;;;;;;;58.42;19.77;;;-1.20;99.90;;;;;;4222721;28;20067;-89
2022/12/17 16:39:27;;;;;;;53.22;15.48;;;-1.30;99.90;;;;;;4221738;28;20075;-88
2022/12/17 16:41:33;;;;;;;55.33;18.90;;;0.10;99.90;;;;;;4222337;28;20548;-86
2022/12/17 16:43:37;;;;;;;46.38;15.65;;;-1.20;99.90;;;;;;4205100;28;20051;-88
2022/12/17 16:45:49;;;;;;;55.60;16.88;;;-1.30;99.90;;;;;;4222357;28;20231;-88
2022/12/17 16:47:55;;;;;;;;;;;-0.20;99.90;;;;;;4206912;28;20408;-87
2022/12/17 16:49:57;;;;;;;53.53;16.75;;;-1.40;99.90;;;;;;4222677;28;19935;-89
2022/12/17 16:52:03;;;;;;;61.70;19.00;;;-1.40;99.90;;;;;;4205759;28;20122;-88
2022/12/17 16:54:07;;;;;;;54.10;17.55;;;0.10;99.90;;;;;;4222090;28;20048;-88
2022/12/17 16:56:17;;;;;;;63.53;17.85;;;-1.50;99.90;;;;;;4209075;28;20036;-89
2022/12/17 16:58:20;;;;;;;61.33;17.77;;;-2.70;99.90;;;;;;4206590;28;20377;-88
2022/12/17 17:00:25;;;;;;;59.85;18.25;;;-1.60;99.90;;;;;;4230285;28;20647;-88
2022/12/17 17:02:31;;;;;;;49.85;16.10;;;-1.60;99.90;;;;;;4208768;28;20083;-89
2022/12/17 17:04:35;;;;;;;57.13;18.60;;;-1.60;99.90;;;;;;4217769;28;20128;-88
2022/12/17 17:06:49;;;;;;;61.00;17.95;;;-0.80;99.90;;;;;;4240420;28;20035;-87
2022/12/17 17:08:55;;;;;;;62.15;18.17;;;-1.70;99.90;;;;;;4222093;28;20051;-88
2022/12/17 17:11:10;;;;;;;55.20;17.48;;;-0.60;99.90;;;;;;4222610;28;20082;-88
2022/12/17 17:13:11;;;;;;;59.97;17.25;;;-1.80;99.90;;;;;;4222397;28;20109;-88
2022/12/17 17:15:13;;;;;;;57.25;18.98;;;-1.30;99.90;;;;;;4210832;28;20063;-88
2022/12/17 17:17:22;;;;;;;61.58;18.85;;;-1.80;99.90;;;;;;4223677;28;20409;-88
2022/12/17 17:19:23;;;;;;;61.63;19.33;;;-1.70;99.90;;;;;;4222283;28;20036;-88
2022/12/17 17:21:36;;;;;;;57.78;19.05;;;-2.40;99.90;;;;;;4205465;28;20048;-88
2022/12/17 17:23:39;;;;;;;62.08;17.20;;;-2.40;99.90;;;;;;4206821;28;20075;-88
2022/12/17 17:25:41;;;;;;;60.35;18.33;;;-1.10;99.90;;;;;;4223496;28;20036;-88
2022/12/17 17:27:49;;;;;;;56.15;18.27;;;-1.90;99.90;;;;;;4206092;28;20494;-88
2022/12/17 17:29:55;;;;;;;64.97;18.20;;;-0.30;99.90;;;;;;4209535;28;20074;-88
2022/12/17 17:32:06;;;;;;;54.80;17.08;;;-2.30;99.90;;;;;;4228553;28;20094;-87
2022/12/17 17:34:16;;;;;;;60.15;17.40;;;-2.60;99.90;;;;;;4250577;28;20031;-87
2022/12/17 17:36:28;;;;;;;58.63;17.38;;;-2.00;99.90;;;;;;4247056;28;20107;-88
2022/12/17 17:38:32;;;;;;;56.10;17.77;;;-1.90;99.90;;;;;;4242198;28;20086;-88
2022/12/17 17:40:40;;;;;;;72.28;19.75;;;-2.10;99.90;;;;;;4242753;28;20059;-89
2022/12/17 17:42:42;;;;;;;48.78;16.83;;;-1.90;99.90;;;;;;4242861;28;20046;-88
2022/12/17 17:44:47;;;;;;;58.97;16.73;;;-2.00;99.90;;;;;;4239129;28;20462;-88
2022/12/17 17:46:51;;;;;;;59.92;18.52;;;-2.60;99.90;;;;;;4238606;28;20036;-88
2022/12/17 17:48:56;;;;;;;56.92;16.60;;;-2.00;99.90;;;;;;4238973;28;20043;-88
2022/12/17 17:51:03;;;;;;;62.40;19.08;;;-0.70;99.90;;;;;;4218295;28;20058;-88
2022/12/17 17:53:10;;;;;;;61.13;18.20;;;-2.00;99.90;;;;;;4224394;28;20035;-89
2022/12/17 17:55:13;;;;;;;57.83;17.40;;;-2.10;99.90;;;;;;4222969;28;20060;-88
2022/12/17 17:57:15;;;;;;;52.70;17.70;;;-2.10;99.90;;;;;;4240264;28;20044;-88
2022/12/17 17:59:19;;;;;;;49.72;13.88;;;-2.10;99.90;;;;;;4223527;28;20047;-88
2022/12/17 18:01:28;;;;;;;54.50;15.93;;;-2.10;99.90;;;;;;4239870;28;20108;-88
2022/12/17 18:03:30;;;;;;;55.70;16.65;;;-2.90;99.90;;;;;;4223683;28;20048;-87
2022/12/17 18:05:37;;;;;;;66.57;17.25;;;-1.70;99.90;;;;;;4239740;28;20066;-88
2022/12/17 18:07:41;;;;;;;65.03;18.73;;;-1.90;99.90;;;;;;4220811;28;20036;-88
2022/12/17 18:09:50;;;;;;;58.75;17.45;;;-2.20;99.90;;;;;;4209556;28;20056;-88
2022/12/17 18:11:52;;;;;;;54.65;15.88;;;-2.20;99.90;;;;;;4226991;28;20056;-89
2022/12/17 18:13:59;;;;;;;63.92;15.90;;;-2.00;99.90;;;;;;4226915;28;20059;-88
2022/12/17 18:16:03;;;;;;;54.85;17.30;;;-2.30;99.90;;;;;;4226102;28;20036;-89
2022/12/17 18:18:04;;;;;;;58.90;16.52;;;-2.20;99.90;;;;;;4208871;28;20041;-88
2022/12/17 18:20:05;;;;;;;60.80;16.02;;;-2.30;99.90;;;;;;4209598;28;20070;-88
2022/12/17 18:22:10;;;;;;;60.33;16.90;;;-2.20;99.90;;;;;;4226611;28;20133;-87
2022/12/17 18:24:14;;;;;;;55.92;18.15;;;-1.40;99.90;;;;;;4226024;28;20060;-87
2022/12/17 18:26:20;;;;;;;66.55;16.85;;;-0.80;99.90;;;;;;4218736;28;20070;-87
2022/12/17 18:28:35;;;;;;;55.22;16.55;;;-0.90;99.90;;;;;;4244698;28;20050;-88
2022/12/17 18:30:48;;;;;;;62.03;17.33;;;-2.40;99.90;;;;;;4227930;28;20047;-88
2022/12/17 18:32:51;;;;;;;54.08;14.27;;;-2.30;99.90;;;;;;4228972;28;20044;-87
2022/12/17 18:34:55;;;;;;;64.43;18.10;;;-3.70;99.90;;;;;;4229048;28;20058;-88
2022/12/17 18:37:06;;;;;;;68.20;19.23;;;-2.20;99.90;;;;;;4229301;28;20044;-88
2022/12/17 18:39:21;;;;;;;58.95;18.05;;;-2.40;99.90;;;;;;4244427;28;20050;-87
2022/12/17 18:43:49;;;;;;;47.15;13.05;;;-2.50;99.90;;;;;;4239905;28;20055;-88
2022/12/17 18:46:03;;;;;;;57.55;16.25;;;-2.30;99.90;;;;;;4227342;28;20044;-88
2022/12/17 18:48:06;;;;;;;63.17;16.40;;;-2.80;99.90;;;;;;4211314;28;20104;-88
2022/12/17 18:50:12;;;;;;;53.75;16.95;;;-2.70;99.90;;;;;;4227802;28;20036;-88
2022/12/17 18:52:26;;;;;;;56.75;16.27;;;-2.40;99.90;;;;;;4210570;28;20051;-88
2022/12/17 18:54:35;;;;;;;57.25;16.67;;;-2.40;99.90;;;;;;4227699;28;20048;-89
2022/12/17 18:56:46;;;;;;;;;;;-2.50;99.90;;;;;;4210706;28;20059;-89
2022/12/17 18:58:48;;;;;;;69.22;17.27;;;-2.40;99.90;;;;;;4209293;28;19920;-88
2022/12/17 19:00:51;;;;;;;53.45;14.68;;;-2.50;99.90;;;;;;4231229;28;20038;-88
2022/12/17 19:02:53;;;;;;;55.80;15.68;;;-2.40;99.90;;;;;;4224853;28;20040;-89
2022/12/17 19:04:58;;;;;;;48.70;13.93;;;-0.80;99.90;;;;;;4243912;28;20113;-88
2022/12/17 19:07:00;;;;;;;57.47;17.67;;;-2.40;99.90;;;;;;4226048;28;20494;-88
2022/12/17 19:09:05;;;;;;;58.47;17.35;;;-2.00;99.90;;;;;;4225682;28;20048;-87
2022/12/17 19:11:08;;;;;;;37.15;11.55;;;-2.30;99.90;;;;;;4242540;28;20062;-87
2022/12/17 19:13:12;;;;;;;48.75;16.33;;;-2.10;99.90;;;;;;4225571;28;20060;-87
2022/12/17 19:15:21;;;;;;;56.53;17.52;;;-2.60;99.90;;;;;;4242702;28;20074;-87
2022/12/17 19:17:27;;;;;;;42.90;13.13;;;-3.90;99.90;;;;;;4241589;28;20031;-88
2022/12/17 19:19:31;;;;;;;68.05;17.73;;;-2.60;99.90;;;;;;4207489;28;20044;-86
2022/12/17 19:21:34;;;;;;;48.33;14.20;;;-1.00;99.90;;;;;;4229580;28;20032;-89
2022/12/17 19:23:37;;;;;;;51.88;15.13;;;-2.70;99.90;;;;;;4225525;28;20075;-88
2022/12/17 19:25:38;;;;;;;65.32;19.65;;;-2.40;99.90;;;;;;4224434;28;20127;-88
2022/12/17 19:27:41;;;;;;;58.30;16.48;;;-1.20;99.90;;;;;;4225320;28;20039;-88
2022/12/17 19:29:44;;;;;;;65.60;17.75;;;-2.70;99.90;;;;;;4224811;28;20040;-89
2022/12/17 19:31:50;;;;;;;64.72;17.13;;;-2.60;99.90;;;;;;4225528;28;20056;-86
2022/12/17 19:34:00;;;;;;;52.67;13.77;;;-2.50;99.90;;;;;;4239150;28;20040;-87
2022/12/17 19:36:12;;;;;;;60.45;15.65;;;-2.70;99.90;;;;;;4208882;28;20112;-87
2022/12/17 19:38:20;;;;;;;67.95;16.90;;;-2.50;99.90;;;;;;4225436;28;20040;-87
2022/12/17 19:40:33;;;;;;;63.03;17.23;;;-2.60;99.90;;;;;;4224847;28;20046;-87
2022/12/17 19:42:38;;;;;;;65.93;16.88;;;-2.60;99.90;;;;;;4225573;28;20044;-87
2022/12/17 19:44:43;;;;;;;57.83;17.10;;;-3.20;99.90;;;;;;4227513;28;20101;-88
2022/12/17 19:46:45;;;;;;;64.68;17.80;;;-3.50;99.90;;;;;;4209914;28;20041;-87
2022/12/17 19:48:51;;;;;;;73.88;19.90;;;-3.10;99.90;;;;;;4226705;28;20044;-88
2022/12/17 19:50:56;;;;;;;58.13;16.90;;;-2.10;99.90;;;;;;4228035;28;20044;-87
2022/12/17 19:52:58;;;;;;;56.03;14.98;;;-2.50;99.90;;;;;;4211656;28;20479;-87
2022/12/17 19:55:01;;;;;;;59.80;17.70;;;-2.70;99.90;;;;;;4208590;28;20413;-87
2022/12/17 19:57:10;;;;;;;60.92;18.38;;;-2.60;99.90;;;;;;4208734;28;20057;-88
2022/12/17 19:59:13;;;;;;;69.75;19.73;;;-2.70;99.90;;;;;;4209404;28;20051;-88
2022/12/17 20:01:23;;;;;;;61.38;18.45;;;-3.70;99.90;;;;;;4228051;28;20066;-86
2022/12/17 20:03:43;;;;;;;66.75;16.70;;;-2.70;99.90;;;;;;4210313;28;20094;-88
2022/12/17 20:05:45;;;;;;;57.67;16.65;;;-4.10;99.90;;;;;;4210577;28;20044;-88
2022/12/17 20:07:47;;;;;;;57.08;16.20;;;-3.20;99.90;;;;;;4210672;28;20427;-87
2022/12/17 20:09:49;;;;;;;59.15;18.02;;;-2.50;99.90;;;;;;4231771;28;20118;-88
2022/12/17 20:11:55;;;;;;;63.42;19.67;;;-2.80;99.90;;;;;;4245099;28;20043;-88
2022/12/17 20:14:20;;;;;;;61.40;19.55;;;-2.70;99.90;;;;;;4242137;28;20043;-87
2022/12/17 20:16:25;;;;;;;60.72;17.00;;;-3.50;99.90;;;;;;4225250;28;20523;-87
2022/12/17 20:18:41;;;;;;;55.30;16.40;;;-3.30;99.90;;;;;;4225729;28;20052;-87
2022/12/17 20:20:48;;;;;;;53.42;17.95;;;-2.80;99.90;;;;;;4226379;28;20048;-87
2022/12/17 20:22:56;;;;;;;56.13;18.70;;;-4.10;99.90;;;;;;4224922;28;20123;-87
2022/12/17 20:25:08;;;;;;;64.38;18.98;;;-2.80;99.90;;;;;;4241652;28;20132;-87
2022/12/17 20:27:10;;;;;;;55.22;20.05;;;-1.30;99.90;;;;;;4221128;28;20102;-87
2022/12/17 20:29:13;;;;;;;56.03;18.38;;;-2.80;99.90;;;;;;4240706;28;20048;-87
2022/12/17 20:31:16;;;;;;;64.30;18.45;;;-2.70;99.90;;;;;;4240632;28;20086;-88
2022/12/17 20:33:18;;;;;;;54.42;18.33;;;-2.70;99.90;;;;;;4242111;28;20489;-87
2022/12/17 20:35:20;;;;;;;69.18;21.08;;;-2.90;99.90;;;;;;4224279;28;20123;-87
2022/12/17 20:37:22;;;;;;;60.05;19.65;;;-1.40;99.90;;;;;;4224811;28;20165;-87
2022/12/17 20:39:26;;;;;;;63.42;19.15;;;-2.00;99.90;;;;;;4223757;28;20054;-87
2022/12/17 20:41:31;;;;;;;98.03;28.23;;;-2.90;99.90;;;;;;4241943;28;20377;-87
2022/12/17 20:43:33;;;;;;;62.53;20.13;;;-3.00;99.90;;;;;;4224928;28;20052;-87
2022/12/17 20:45:47;;;;;;;72.30;20.73;;;-2.60;99.90;;;;;;4219484;28;20040;-87
2022/12/17 20:48:04;;;;;;;57.00;17.52;;;-4.00;99.90;;;;;;4242643;28;20384;-87
2022/12/17 20:50:06;;;;;;;72.28;20.60;;;-2.80;99.90;;;;;;4243188;28;20040;-87
2022/12/17 20:52:15;;;;;;;64.53;20.30;;;-2.80;99.90;;;;;;4242993;28;20070;-87
2022/12/17 20:54:22;;;;;;;;;;;-3.00;99.90;;;;;;4227032;28;20071;-87
2022/12/17 20:56:29;;;;;;;54.40;15.50;;;-2.80;99.90;;;;;;4224814;28;19923;-87
2022/12/17 20:58:30;;;;;;;57.55;18.92;;;-2.90;99.90;;;;;;4224416;28;20048;-87
2022/12/17 21:00:43;;;;;;;65.38;20.40;;;-1.70;99.90;;;;;;4223167;28;20041;-88
2022/12/17 21:02:49;;;;;;;54.35;18.77;;;-3.00;99.90;;;;;;4225445;28;20043;-87
2022/12/17 21:05:06;;;;;;;63.55;19.98;;;-2.80;99.90;;;;;;4225241;28;20470;-87
2022/12/17 21:07:10;;;;;;;67.72;21.23;;;-3.00;99.90;;;;;;4226000;28;20082;-87
2022/12/17 21:09:19;;;;;;;81.07;27.90;;;-3.00;99.90;;;;;;4241299;28;20055;-87
2022/12/17 21:11:25;;;;;;;67.10;20.00;;;-3.30;99.90;;;;;;4242444;28;20069;-86
2022/12/17 21:13:29;;;;;;;52.33;17.48;;;-3.10;99.90;;;;;;4224885;28;20135;-86
2022/12/17 21:15:33;;;;;;;60.28;19.70;;;-3.10;99.90;;;;;;4223491;28;20559;-88
2022/12/17 21:17:38;;;;;;;75.53;20.75;;;-2.90;99.90;;;;;;4225086;28;20052;-88
2022/12/17 21:19:40;;;;;;;57.22;19.65;;;-2.90;99.90;;;;;;4218789;28;20065;-87
2022/12/17 21:21:42;;;;;;;69.28;21.48;;;-1.70;99.90;;;;;;4240582;28;20051;-88
2022/12/17 21:23:56;;;;;;;61.22;19.25;;;-2.70;99.90;;;;;;4223471;28;20136;-87
2022/12/17 21:26:07;;;;;;;71.47;22.38;;;-3.10;99.90;;;;;;4241289;28;20039;-89
2022/12/17 21:28:08;;;;;;;55.58;16.98;;;-3.00;99.90;;;;;;4224489;28;20077;-87
2022/12/17 21:30:16;;;;;;;70.63;21.42;;;-3.20;99.90;;;;;;4242165;28;20043;-88
2022/12/17 21:32:17;;;;;;;64.60;22.27;;;-2.10;99.90;;;;;;4226281;28;20051;-88
2022/12/17 21:34:34;;;;;;;65.32;22.25;;;-3.00;99.90;;;;;;4228965;28;20051;-87
2022/12/17 21:36:48;;;;;;;;;;;-4.40;99.90;;;;;;4238223;28;20138;-88
2022/12/17 21:38:58;;;;;;;60.72;19.85;;;-3.10;99.90;;;;;;4211511;28;19996;-88
2022/12/17 21:41:11;;;;;;;68.13;20.13;;;-3.80;99.90;;;;;;4225500;28;20051;-88
2022/12/17 21:43:17;;;;;;;64.78;21.13;;;-3.10;99.90;;;;;;4226373;28;20044;-87
2022/12/17 21:45:20;;;;;;;71.35;20.52;;;-3.00;99.90;;;;;;4210997;28;20078;-88
2022/12/17 21:47:23;;;;;;;69.45;22.52;;;-4.00;99.90;;;;;;4211465;28;20044;-88
2022/12/17 21:49:40;;;;;;;64.70;18.50;;;-3.00;99.90;;;;;;4211897;28;20040;-90
2022/12/17 21:51:44;;;;;;;69.28;20.15;;;-3.20;99.90;;;;;;4229002;28;20040;-87
2022/12/17 21:53:59;;;;;;;83.65;25.30;;;-4.20;99.90;;;;;;4231242;28;20048;-88
2022/12/17 21:56:07;;;;;;;73.32;26.05;;;-2.00;99.90;;;;;;4231060;28;20044;-87
2022/12/17 21:58:20;;;;;;;;;;;-3.10;99.90;;;;;;4229411;28;20052;-88
2022/12/17 22:00:22;;;;;;;44.08;14.27;;;-3.30;99.90;;;;;;4229119;28;20017;-87
2022/12/17 22:02:24;;;;;;;78.55;21.48;;;-1.80;99.90;;;;;;4212416;28;20427;-87
2022/12/17 22:04:38;;;;;;;61.75;19.20;;;-3.30;99.90;;;;;;4229628;28;20040;-87
2022/12/17 22:06:44;;;;;;;57.45;17.45;;;-3.20;99.90;;;;;;4213265;28;20044;-88
2022/12/17 22:08:58;;;;;;;57.08;18.65;;;-4.30;99.90;;;;;;4228936;28;20067;-87
2022/12/17 22:11:14;;;;;;;68.57;18.80;;;-3.10;99.90;;;;;;4228455;28;20047;-87
2022/12/17 22:15:39;;;;;;;63.58;18.98;;;-3.20;99.90;;;;;;4228855;28;20059;-88
2022/12/17 22:17:48;;;;;;;63.75;18.27;;;-3.30;99.90;;;;;;4212192;28;20080;-88
2022/12/17 22:19:50;;;;;;;59.63;18.67;;;-3.30;99.90;;;;;;4211784;28;20543;-88
2022/12/17 22:22:09;;;;;;;64.13;20.35;;;-3.30;99.90;;;;;;4211456;28;20079;-87
2022/12/17 22:24:20;;;;;;;65.80;20.25;;;-2.90;99.90;;;;;;4230360;28;20050;-88
2022/12/17 22:26:32;;;;;;;57.22;15.82;;;-4.70;99.90;;;;;;4222768;28;20083;-89
2022/12/17 22:28:36;;;;;;;63.13;18.15;;;-3.30;99.90;;;;;;4245899;28;20043;-88
2022/12/17 22:33:09;;;;;;;57.47;18.17;;;-3.40;99.90;;;;;;4246742;28;20107;-88
2022/12/17 22:35:13;;;;;;;65.53;18.25;;;-3.50;99.90;;;;;;4245120;28;20062;-87
2022/12/17 22:37:16;;;;;;;60.47;17.42;;;-3.40;99.90;;;;;;4245861;28;20131;-87
2022/12/17 22:39:20;;;;;;;56.47;16.95;;;-3.50;99.90;;;;;;4228483;28;20131;-87
2022/12/17 22:44:02;;;;;;;68.30;18.40;;;-3.90;99.90;;;;;;4241284;28;20048;-87
2022/12/17 22:46:06;;;;;;;69.45;19.80;;;-3.50;99.90;;;;;;4228468;28;20503;-87
2022/12/17 22:48:16;;;;;;;64.72;18.60;;;-3.40;99.90;;;;;;4227843;28;20080;-88
2022/12/17 22:50:22;;;;;;;58.10;16.65;;;-3.50;99.90;;;;;;4228844;28;20151;-88
2022/12/17 22:52:27;;;;;;;67.00;19.58;;;-4.20;99.90;;;;;;4229042;28;20086;-87
2022/12/17 22:54:34;;;;;;;53.10;15.88;;;-3.50;99.90;;;;;;4227291;28;20420;-88
2022/12/17 22:56:39;;;;;;;57.75;17.25;;;-3.50;99.90;;;;;;4246012;28;20059;-87
2022/12/17 22:58:49;;;;;;;58.83;17.17;;;-3.40;99.90;;;;;;4228129;28;20051;-87
2022/12/17 23:00:59;;;;;;;56.08;17.48;;;-3.40;99.90;;;;;;4233095;28;20086;-87
2022/12/17 23:03:13;;;;;;;52.03;14.68;;;-3.50;99.90;;;;;;4246030;28;20044;-87
2022/12/17 23:05:25;;;;;;;63.00;16.42;;;-2.60;99.90;;;;;;4228629;28;20043;-87
2022/12/17 23:07:32;;;;;;;67.22;20.80;;;-3.60;99.90;;;;;;4230702;28;20079;-87
2022/12/17 23:09:37;;;;;;;64.30;17.42;;;-4.50;99.90;;;;;;4229231;28;20024;-87
2022/12/17 23:11:43;;;;;;;76.65;22.27;;;-4.50;99.90;;;;;;4246225;28;20048;-87
2022/12/17 23:13:44;;;;;;;73.88;19.52;;;-4.80;99.90;;;;;;4228338;28;20463;-87
2022/12/17 23:15:49;;;;;;;75.43;18.55;;;-2.20;99.90;;;;;;4245659;28;20080;-87
2022/12/17 23:18:04;;;;;;;63.42;21.35;;;-3.60;99.90;;;;;;4219203;28;20080;-87
2022/12/17 23:20:23;;;;;;;61.85;20.50;;;-3.50;99.90;;;;;;4235987;28;20105;-87
2022/12/17 23:22:25;;;;;;;60.65;15.95;;;-4.80;99.90;;;;;;4243855;28;20043;-87
2022/12/17 23:24:33;;;;;;;72.65;22.63;;;-3.60;99.90;;;;;;4236121;28;20040;-87
2022/12/17 23:26:39;;;;;;;68.57;19.98;;;-4.30;99.90;;;;;;4233615;28;20108;-88
2022/12/17 23:28:45;;;;;;;73.18;22.40;;;-3.50;99.90;;;;;;4251727;28;20521;-87
2022/12/17 23:31:07;;;;;;;67.30;18.65;;;-3.50;99.90;;;;;;4248269;28;20047;-88
2022/12/17 23:33:27;;;;;;;62.55;18.67;;;-3.30;99.90;;;;;;4247355;28;20043;-88
2022/12/17 23:35:40;;;;;;;67.85;19.15;;;-3.60;99.90;;;;;;4232277;28;20052;-87
2022/12/17 23:37:44;;;;;;;81.20;21.02;;;-3.60;99.90;;;;;;4229225;28;20066;-88
2022/12/17 23:39:53;;;;;;;72.30;19.85;;;-3.50;99.90;;;;;;4227196;28;20044;-87
2022/12/17 23:41:58;;;;;;;80.97;22.20;;;-3.60;99.90;;;;;;4229220;28;20075;-87
2022/12/17 23:44:01;;;;;;;82.72;20.08;;;-3.60;99.90;;;;;;4233328;28;20051;-87
2022/12/17 23:46:05;;;;;;;63.65;18.35;;;-3.60;99.90;;;;;;4227535;28;20050;-87
2022/12/17 23:48:10;;;;;;;68.22;19.90;;;-3.50;99.90;;;;;;4226518;28;20089;-87
2022/12/17 23:50:20;;;;;;;75.75;22.10;;;-2.60;99.90;;;;;;4226307;28;20048;-87
2022/12/17 23:52:26;;;;;;;67.82;20.30;;;-3.50;99.90;;;;;;4243911;28;20071;-87
2022/12/17 23:54:39;;;;;;;60.58;17.02;;;-3.70;99.90;;;;;;4227838;28;20403;-88
2022/12/17 23:56:43;;;;;;;61.13;16.20;;;-3.60;99.90;;;;;;4243208;28;20138;-87
2022/12/17 23:58:46;;;;;;;69.70;19.17;;;-3.50;99.90;;;;;;4244722;28;20048;-87
